Sunbury, PA

9:59 PM EST on January 27, 2015 (GMT -0500)
Muir Army Air Field | Change Station
CLOSE
Current Station
Airport
Location: Fort Indiantown Gap,
Elevation: 489 ft
Nearby Weather Stations

Elev 489 ft 40.43 °N, 76.57 °W | Updated 7 minutes ago

Partly Cloudy
Partly Cloudy
18 °F
Feels Like 2 °F
N
18
Wind Variable Wind from NW
Gusts 31 mph

Today
High -- | Low -- °F
--% Chance of Precip.
Yesterday
High -- | Low -- °F
Precip. -- in
7:21 AM 5:17 PM
First Quarter, 60% visible
Pressure 29.92 in
Visibility 10.0 miles
Clouds Clear
Windchill 2 °F
Dew Point 3 °F
Humidity 53%
Rainfall 0.00 in
Snow Depth Not available.
UV 0 out of 12
Pollen .10 out of 12
Air Quality Not available.
Flu Activity Not available.
SPECI KMUI 280252Z AUTO 32016G27KT 290V020 10SM CLR M08/M16 A2992 RMK AO2 WSHFT 45

More Conditions Fewer Conditions

Pressure 29.92 in
Visibility 10.0 miles
Clouds Clear
Windchill 2 °F
Dew Point 3 °F
Humidity 53%
Rainfall 0.00 in
Snow Depth Not available.
UV 0 out of 12
Pollen .10 out of 12
Air Quality Not available.
Flu Activity Not available.
SPECI KMUI 280252Z AUTO 32016G27KT 290V020 10SM CLR M08/M16 A2992 RMK AO2 WSHFT 45

More Conditions Fewer Conditions

10-Day Weather Forecast

Almanac

Astronomy

Jan. 27, 2015 Rise Set
Actual Time
Civil Twilight
Nautical Twilight
Astronomical Twilight
Moon
Length of Visible Light
Length of Day
Tomorrow will be .
, % of the Moon is Illuminated

Today's Extremes

State Highs State Lows

Community

WunderPhotos

Upload Photos

1,791,060 photos uploaded!

WunderBlogs® & News

Nearby

Air Quality

  Air Quality AQ Index Pollutant
Not available.

Snow Depth

Station Depth Elevation

Earthquake Activity

City Distance Mag. Time & Date
Minimum magnitude displayed is 2.5.

Coastal Water Temperatures

Place Temperature

Nearby Weather Stations